Time;durP1;ratioP1;P1;durP2;ratioP2;P2;SDS_P1;SDS_P2;PMS_P1;PMS_P2;Temp;Humidity;BMP_temperature;BMP_pressure;BME280_temperature;BME280_humidity;BME280_pressure;Samples;Min_cycle;Max_cycle;Signal;HPM_P1;HPM_P2
2021/01/07 00:01:10;;;;;;;;;;;1.50;99.90;;;;;;5071744;28;19920;-71
2021/01/07 00:04:14;;;;;;;;;;;1.60;99.90;;;;;;5065819;28;19923;-72
2021/01/07 00:07:19;;;;;;;;;;;1.70;99.90;;;;;;5073235;28;20255;-70
2021/01/07 00:10:23;;;;;;;;;;;1.70;99.90;;;;;;5059293;28;20355;-72
2021/01/07 00:13:27;;;;;;;;;;;1.60;99.90;;;;;;5072381;28;19919;-71
2021/01/07 00:16:31;;;;;;;;;;;1.30;99.90;;;;;;5068342;28;19919;-71
2021/01/07 00:19:35;;;;;;;;;;;1.40;99.90;;;;;;5073186;28;20260;-70
2021/01/07 00:22:39;;;;;;;;;;;1.60;99.90;;;;;;5072569;28;19919;-72
2021/01/07 00:25:47;;;;;;;;;;;1.60;99.90;;;;;;5060065;28;19920;-72
2021/01/07 00:28:51;;;;;;;;;;;1.60;99.90;;;;;;5067638;28;19923;-70
2021/01/07 00:31:55;;;;;;;;;;;1.70;99.90;;;;;;5065329;28;20370;-71
2021/01/07 00:34:59;;;;;;;;;;;1.80;99.90;;;;;;5062017;28;19919;-70
2021/01/07 00:38:04;;;;;;;;;;;2.00;99.90;;;;;;5072175;28;20374;-72
2021/01/07 00:41:08;;;;;;;;;;;2.10;99.90;;;;;;5066056;28;20382;-71
2021/01/07 00:44:12;;;;;;;;;;;1.70;99.90;;;;;;5063771;28;19995;-70
2021/01/07 00:47:16;;;;;;;;;;;1.50;99.90;;;;;;5070292;28;20469;-72
2021/01/07 00:50:19;;;;;;;;;;;1.50;99.90;;;;;;5064170;28;19915;-71
2021/01/07 00:53:24;;;;;;;;;;;1.60;99.90;;;;;;5070852;28;19947;-72
2021/01/07 00:56:33;;;;;;;;;;;1.70;99.90;;;;;;5077775;28;19916;-71
2021/01/07 00:59:38;;;;;;;;;;;1.70;99.90;;;;;;5064562;28;19991;-70
2021/01/07 01:02:42;;;;;;;;;;;1.70;99.90;;;;;;5070769;28;19939;-70
2021/01/07 01:05:46;;;;;;;;;;;1.80;99.90;;;;;;5072507;28;19916;-70
2021/01/07 01:08:50;;;;;;;;;;;1.90;99.90;;;;;;5059683;28;19915;-71
2021/01/07 01:11:54;;;;;;;;;;;1.70;99.90;;;;;;5070559;28;20378;-70
2021/01/07 01:14:58;;;;;;;;;;;1.50;99.90;;;;;;5071329;28;19916;-71
2021/01/07 01:18:02;;;;;;;;;;;1.40;99.90;;;;;;5071560;28;19935;-71
2021/01/07 01:21:06;;;;;;;;;;;1.30;99.90;;;;;;5061701;28;19919;-72
2021/01/07 01:24:11;;;;;;;;;;;1.30;99.90;;;;;;5058721;28;19919;-72
2021/01/07 01:27:15;;;;;;;;;;;1.30;99.90;;;;;;5071184;28;20390;-72
2021/01/07 01:30:20;;;;;;;;;;;1.30;99.90;;;;;;5071186;28;19931;-70
2021/01/07 01:33:25;;;;;;;;;;;1.30;99.90;;;;;;5071100;28;19923;-72
2021/01/07 01:36:30;;;;;;;;;;;1.30;99.90;;;;;;5071494;28;20354;-71
2021/01/07 01:39:34;;;;;;;;;;;1.20;99.90;;;;;;5071035;28;19915;-72
2021/01/07 01:42:38;;;;;;;;;;;1.20;99.90;;;;;;5058378;28;20386;-71
2021/01/07 01:45:43;;;;;;;;;;;1.10;99.90;;;;;;5071309;28;20373;-72
2021/01/07 01:48:47;;;;;;;;;;;1.00;99.90;;;;;;5071242;28;19915;-73
2021/01/07 01:51:51;;;;;;;;;;;1.00;99.90;;;;;;5070219;28;20378;-71
2021/01/07 01:54:55;;;;;;;;;;;1.10;99.90;;;;;;5071570;28;19915;-72
2021/01/07 01:58:00;;;;;;;;;;;1.00;99.90;;;;;;5056624;28;19955;-73
2021/01/07 02:01:04;;;;;;;;;;;0.90;99.90;;;;;;5070488;28;19923;-71
2021/01/07 02:04:09;;;;;;;;;;;1.10;99.90;;;;;;5070954;28;19919;-72
2021/01/07 02:07:14;;;;;;;;;;;1.10;99.90;;;;;;5068173;28;19915;-72
2021/01/07 02:10:19;;;;;;;;;;;1.10;99.90;;;;;;5056954;28;19916;-72
2021/01/07 02:13:23;;;;;;;;;;;1.00;99.90;;;;;;5060368;28;20282;-72
2021/01/07 02:16:27;;;;;;;;;;;0.70;99.90;;;;;;5069571;28;19916;-72
2021/01/07 02:19:31;;;;;;;;;;;0.70;99.90;;;;;;5053807;28;19919;-72
2021/01/07 02:22:35;;;;;;;;;;;0.70;99.90;;;;;;5069040;28;19923;-71
2021/01/07 02:25:40;;;;;;;;;;;0.80;99.90;;;;;;5057464;28;19947;-72
2021/01/07 02:28:44;;;;;;;;;;;0.90;99.90;;;;;;5069873;28;20291;-72
2021/01/07 02:31:47;;;;;;;;;;;1.00;99.90;;;;;;5058379;28;19963;-72
2021/01/07 02:34:53;;;;;;;;;;;0.90;99.90;;;;;;5070576;28;19923;-72
2021/01/07 02:37:57;;;;;;;;;;;0.90;99.90;;;;;;5055738;28;19916;-71
2021/01/07 02:41:01;;;;;;;;;;;0.90;99.90;;;;;;5062461;28;19916;-72
2021/01/07 02:44:08;;;;;;;;;;;1.00;99.90;;;;;;5068709;28;19923;-71
2021/01/07 02:47:12;;;;;;;;;;;1.10;99.90;;;;;;5070822;28;20279;-72
2021/01/07 02:50:15;;;;;;;;;;;1.20;99.90;;;;;;5069705;28;20385;-72
2021/01/07 02:53:19;;;;;;;;;;;1.30;99.90;;;;;;5069936;28;20003;-72
2021/01/07 02:56:24;;;;;;;;;;;1.20;99.90;;;;;;5070609;28;19919;-72
2021/01/07 02:59:28;;;;;;;;;;;1.20;99.90;;;;;;5069874;28;19919;-72
2021/01/07 03:02:32;;;;;;;;;;;1.20;99.90;;;;;;5070364;28;19919;-72
2021/01/07 03:05:36;;;;;;;;;;;1.10;99.90;;;;;;5056301;28;19919;-72
2021/01/07 03:08:40;;;;;;;;;;;1.10;99.90;;;;;;5070560;28;19919;-72
2021/01/07 03:11:44;;;;;;;;;;;1.10;99.90;;;;;;5069773;28;19916;-71
2021/01/07 03:14:49;;;;;;;;;;;1.10;99.90;;;;;;5070325;28;19919;-72
2021/01/07 03:17:52;;;;;;;;;;;1.10;99.90;;;;;;5059310;28;19920;-72
2021/01/07 03:20:57;;;;;;;;;;;1.20;99.90;;;;;;5058573;28;19915;-72
2021/01/07 03:24:01;;;;;;;;;;;1.20;99.90;;;;;;5072253;28;19947;-72
2021/01/07 03:27:06;;;;;;;;;;;1.20;99.90;;;;;;5073543;28;19916;-72
2021/01/07 03:30:10;;;;;;;;;;;1.20;99.90;;;;;;5073097;28;19916;-72
2021/01/07 03:33:14;;;;;;;;;;;1.20;99.90;;;;;;5061929;28;19920;-72
2021/01/07 03:36:17;;;;;;;;;;;1.20;99.90;;;;;;5073697;28;19919;-72
2021/01/07 03:39:22;;;;;;;;;;;1.10;99.90;;;;;;5073691;28;19927;-72
2021/01/07 03:42:26;;;;;;;;;;;1.10;99.90;;;;;;5072554;28;19919;-72
2021/01/07 03:45:30;;;;;;;;;;;1.00;99.90;;;;;;5073152;28;19931;-72
2021/01/07 03:48:34;;;;;;;;;;;0.90;99.90;;;;;;5072850;28;19931;-72
2021/01/07 03:51:38;;;;;;;;;;;0.80;99.90;;;;;;5072858;28;20255;-71
2021/01/07 03:54:43;;;;;;;;;;;0.60;99.90;;;;;;5072501;28;19920;-72
2021/01/07 03:57:47;;;;;;;;;;;0.50;99.90;;;;;;5072012;28;19915;-72
2021/01/07 04:00:51;;;;;;;;;;;0.40;99.90;;;;;;5072708;28;19915;-71
2021/01/07 04:03:55;;;;;;;;;;;0.40;99.90;;;;;;5061442;28;19923;-71
2021/01/07 04:06:59;;;;;;;;;;;0.40;99.90;;;;;;5059455;28;19915;-71
2021/01/07 04:10:06;;;;;;;;;;;0.40;99.90;;;;;;5072469;28;19919;-72
2021/01/07 04:13:11;;;;;;;;;;;0.30;99.90;;;;;;5071415;28;20386;-71
2021/01/07 04:16:15;;;;;;;;;;;0.20;99.90;;;;;;5065718;28;19911;-71
2021/01/07 04:19:20;;;;;;;;;;;0.20;99.90;;;;;;5073071;28;19916;-72
2021/01/07 04:22:25;;;;;;;;;;;0.30;99.90;;;;;;5059466;28;20650;-72
2021/01/07 04:25:29;;;;;;;;;;;0.30;99.90;;;;;;5072066;28;19916;-70
2021/01/07 04:28:33;;;;;;;;;;;0.40;99.90;;;;;;5071452;28;19916;-71
2021/01/07 04:31:37;;;;;;;;;;;0.30;99.90;;;;;;5070981;28;19928;-72
2021/01/07 04:34:41;;;;;;;;;;;0.30;99.90;;;;;;5058382;28;19919;-71
2021/01/07 04:37:44;;;;;;;;;;;0.40;99.90;;;;;;5072257;28;19915;-70
2021/01/07 04:40:48;;;;;;;;;;;0.30;99.90;;;;;;5071156;28;20378;-71
2021/01/07 04:43:59;;;;;;;;;;;0.30;99.90;;;;;;5070303;28;19920;-72
2021/01/07 04:47:03;;;;;;;;;;;0.40;99.90;;;;;;5071947;28;19919;-72
2021/01/07 04:50:08;;;;;;;;;;;0.40;99.90;;;;;;5058269;28;19915;-72
2021/01/07 04:53:12;;;;;;;;;;;0.40;99.90;;;;;;5071845;28;19924;-71
2021/01/07 04:56:16;;;;;;;;;;;0.50;99.90;;;;;;5072084;28;19916;-70
2021/01/07 04:59:20;;;;;;;;;;;0.50;99.90;;;;;;5081920;28;19915;-71
2021/01/07 05:02:24;;;;;;;;;;;0.50;99.90;;;;;;5082761;28;19920;-72
2021/01/07 05:05:28;;;;;;;;;;;0.40;99.90;;;;;;5059561;28;19931;-72
2021/01/07 05:08:32;;;;;;;;;;;0.40;99.90;;;;;;5071858;28;20318;-72
2021/01/07 05:11:35;;;;;;;;;;;0.40;99.90;;;;;;5071187;28;19931;-71
2021/01/07 05:14:44;;;;;;;;;;;0.50;99.90;;;;;;5070982;28;19920;-71
2021/01/07 05:17:49;;;;;;;;;;;0.60;99.90;;;;;;5070202;28;19919;-72
2021/01/07 05:20:53;;;;;;;;;;;0.50;99.90;;;;;;5066510;28;19916;-72
2021/01/07 05:23:57;;;;;;;;;;;0.60;99.90;;;;;;5070137;28;19919;-71
2021/01/07 05:27:12;;;;;;;;;;;0.60;99.90;;;;;;5068565;28;19982;-71
2021/01/07 05:30:16;;;;;;;;;;;0.60;99.90;;;;;;5062610;28;19923;-70
2021/01/07 05:33:22;;;;;;;;;;;0.70;99.90;;;;;;5070673;28;19935;-72
2021/01/07 05:36:27;;;;;;;;;;;0.60;99.90;;;;;;5058176;28;19916;-71
2021/01/07 05:39:34;;;;;;;;;;;0.50;99.90;;;;;;5070680;28;19915;-72
2021/01/07 05:42:39;;;;;;;;;;;0.40;99.90;;;;;;5060043;28;19919;-71
2021/01/07 05:45:43;;;;;;;;;;;0.40;99.90;;;;;;5067568;28;19915;-71
2021/01/07 05:48:52;;;;;;;;;;;0.40;99.90;;;;;;5069852;28;19915;-71
2021/01/07 05:51:57;;;;;;;;;;;0.30;99.90;;;;;;5067177;28;20511;-72
2021/01/07 05:55:01;;;;;;;;;;;0.40;99.90;;;;;;5059507;28;19915;-73
2021/01/07 05:58:05;;;;;;;;;;;0.20;99.90;;;;;;5055257;28;19915;-73
2021/01/07 06:01:09;;;;;;;;;;;0.10;99.90;;;;;;5070593;28;19915;-72
2021/01/07 06:04:13;;;;;;;;;;;0.20;99.90;;;;;;5065172;28;20385;-71
2021/01/07 06:07:18;;;;;;;;;;;0.20;99.90;;;;;;5052671;28;19931;-72
2021/01/07 06:10:23;;;;;;;;;;;0.30;99.90;;;;;;5067769;28;19919;-72
2021/01/07 06:13:01;;;;;;;;;;;0.30;99.90;;;;;;5055070;28;19945;-65
2021/01/07 06:16:05;;;;;;;;;;;0.30;99.90;;;;;;5051684;28;19920;-65
2021/01/07 06:19:28;;;;;;;;;;;0.30;99.90;;;;;;5039705;28;19920;-64
2021/01/07 06:22:32;;;;;;;;;;;0.40;99.90;;;;;;5046326;28;20295;-66
2021/01/07 06:25:36;;;;;;;;;;;0.50;99.90;;;;;;5054657;28;19924;-65
2021/01/07 06:28:40;;;;;;;;;;;0.60;99.90;;;;;;5055183;28;19928;-66
2021/01/07 06:31:52;;;;;;;;;;;0.60;99.90;;;;;;5042302;28;20039;-64
2021/01/07 06:34:59;;;;;;;;;;;0.60;99.90;;;;;;5039021;28;19920;-64
2021/01/07 06:38:04;;;;;;;;;;;0.50;99.90;;;;;;5039987;28;19927;-64
2021/01/07 06:41:10;;;;;;;;;;;0.50;99.90;;;;;;5052686;28;20310;-64
2021/01/07 06:44:14;;;;;;;;;;;0.50;99.90;;;;;;5037683;28;19927;-65
2021/01/07 06:47:21;;;;;;;;;;;0.50;99.90;;;;;;5039035;28;19920;-66
2021/01/07 06:50:25;;;;;;;;;;;0.40;99.90;;;;;;5036970;28;19924;-64
2021/01/07 06:53:35;;;;;;;;;;;0.40;99.90;;;;;;5038117;28;19944;-66
2021/01/07 06:56:41;;;;;;;;;;;0.50;99.90;;;;;;5044289;28;20426;-65
2021/01/07 06:59:54;;;;;;;;;;;0.40;99.90;;;;;;5032788;28;20288;-65
2021/01/07 07:02:59;;;;;;;;;;;0.40;99.90;;;;;;5028654;28;19924;-66
2021/01/07 07:06:04;;;;;;;;;;;0.30;99.90;;;;;;5042348;28;19944;-66
2021/01/07 07:09:20;;;;;;;;;;;0.30;99.90;;;;;;5043055;28;19920;-66
2021/01/07 07:12:30;;;;;;;;;;;0.20;99.90;;;;;;5049015;28;19928;-65
2021/01/07 07:15:34;;;;;;;;;;;0.30;99.90;;;;;;5051589;28;20398;-66
2021/01/07 07:18:38;;;;;;;;;;;0.30;99.90;;;;;;5053459;28;19948;-66
2021/01/07 07:21:52;;;;;;;;;;;0.40;99.90;;;;;;5057943;28;19939;-67
2021/01/07 07:24:56;;;;;;;;;;;0.40;99.90;;;;;;5046042;28;19920;-67
2021/01/07 07:28:04;;;;;;;;;;;0.40;99.90;;;;;;5044757;28;19920;-68
2021/01/07 07:31:08;;;;;;;;;;;0.50;99.90;;;;;;5050158;28;19924;-68
2021/01/07 07:34:13;;;;;;;;;;;0.60;99.90;;;;;;5051844;28;19936;-67
2021/01/07 07:37:22;;;;;;;;;;;0.80;99.90;;;;;;5045244;28;20291;-67
2021/01/07 07:40:32;;;;;;;;;;;1.00;99.90;;;;;;5038944;28;20490;-67
2021/01/07 07:43:37;;;;;;;;;;;1.20;99.90;;;;;;5046750;28;19927;-68
2021/01/07 07:46:42;;;;;;;;;;;1.40;99.90;;;;;;5044450;28;20402;-67
2021/01/07 07:49:53;;;;;;;;;;;1.50;99.90;;;;;;5047253;28;19916;-68
2021/01/07 07:53:04;;;;;;;;;;;1.40;99.90;;;;;;5036512;28;20745;-68
2021/01/07 07:56:21;;;;;;;;;;;1.40;99.90;;;;;;5037965;28;19924;-67
2021/01/07 07:59:26;;;;;;;;;;;1.50;99.90;;;;;;5032958;28;19932;-68
2021/01/07 08:02:30;;;;;;;;;;;1.70;99.90;;;;;;5032466;28;19920;-67
2021/01/07 08:05:35;;;;;;;;;;;2.00;99.90;;;;;;5037668;28;20430;-66
2021/01/07 08:08:39;;;;;;;;;;;2.20;99.90;;;;;;5031121;28;19936;-66
2021/01/07 08:11:53;;;;;;;;;;;2.40;99.90;;;;;;5041006;28;19928;-66
2021/01/07 08:14:56;;;;;;;;;;;2.80;99.90;;;;;;5037347;28;19920;-66
2021/01/07 08:18:33;;;;;;;;;;;3.20;99.90;;;;;;5031334;28;19940;-67
2021/01/07 08:21:41;;;;;;;;;;;3.40;99.90;;;;;;5011971;28;19928;-68
2021/01/07 08:24:46;;;;;;;;;;;3.30;99.90;;;;;;5033296;28;19920;-68
2021/01/07 08:27:56;;;;;;;;;;;3.30;99.90;;;;;;5038822;28;19924;-68
2021/01/07 08:31:05;;;;;;;;;;;3.40;99.90;;;;;;5034078;28;19919;-68
2021/01/07 08:34:09;;;;;;;;;;;3.50;99.90;;;;;;5033598;28;19967;-65
2021/01/07 08:37:19;;;;;;;;;;;3.60;99.90;;;;;;5034010;28;20000;-66
2021/01/07 08:40:23;;;;;;;;;;;3.80;99.90;;;;;;5030618;28;19928;-66
2021/01/07 08:43:27;;;;;;;;;;;3.80;99.90;;;;;;5029869;28;19956;-68
2021/01/07 08:46:39;;;;;;;;;;;4.10;99.90;;;;;;5031933;28;19920;-65
2021/01/07 08:49:42;;;;;;;;;;;4.30;99.90;;;;;;5038920;28;19920;-65
2021/01/07 08:52:47;;;;;;;;;;;4.50;99.90;;;;;;5020769;28;19980;-66
2021/01/07 08:55:52;;;;;;;;;;;4.70;99.90;;;;;;5030890;28;19920;-66
2021/01/07 08:59:19;;;;;;;;;;;4.60;99.90;;;;;;5030259;28;19924;-65
2021/01/07 09:02:25;;;;;;;;;;;3.30;99.90;;;;;;5032026;28;19932;-66
2021/01/07 09:05:29;;;;;;;;;;;3.20;99.90;;;;;;5034962;28;19920;-67
2021/01/07 09:08:33;;;;;;;;;;;3.50;99.90;;;;;;5035490;28;19924;-66
2021/01/07 09:11:38;;;;;;;;;;;3.70;99.90;;;;;;5031967;28;20050;-66
2021/01/07 09:14:45;;;;;;;;;;;4.00;99.90;;;;;;5033701;28;19924;-67
2021/01/07 09:17:55;;;;;;;;;;;4.10;99.90;;;;;;5030273;28;19929;-68
2021/01/07 09:21:11;;;;;;;;;;;4.30;99.90;;;;;;5034281;28;19921;-68
2021/01/07 09:24:16;;;;;;;;;;;4.40;99.90;;;;;;5031929;28;19920;-68
2021/01/07 09:27:21;;;;;;;;;;;4.30;99.90;;;;;;5033999;28;19921;-68
2021/01/07 09:30:26;;;;;;;;;;;4.00;99.90;;;;;;5034516;28;19920;-67
2021/01/07 09:33:49;;;;;;;;;;;3.70;99.90;;;;;;5037503;28;19924;-67
2021/01/07 09:36:54;;;;;;;;;;;3.90;99.90;;;;;;5031132;28;19924;-65
2021/01/07 09:39:58;;;;;;;;;;;4.20;99.90;;;;;;5034518;28;19920;-67
2021/01/07 09:43:02;;;;;;;;;;;4.60;99.90;;;;;;5031647;28;20390;-67
2021/01/07 09:46:06;;;;;;;;;;;5.40;99.90;;;;;;5039105;28;20287;-68
2021/01/07 09:49:10;;;;;;;;;;;5.80;99.90;;;;;;5037642;28;19928;-68
2021/01/07 09:52:14;;;;;;;;;;;6.10;99.90;;;;;;5033820;28;20398;-67
2021/01/07 09:55:18;;;;;;;;;;;6.40;99.90;;;;;;5035833;28;19921;-68
2021/01/07 09:58:22;;;;;;;;;;;6.60;99.90;;;;;;5031647;28;20406;-68
2021/01/07 10:01:26;;;;;;;;;;;7.40;99.90;;;;;;5029973;28;19921;-63
2021/01/07 10:04:30;;;;;;;;;;;7.90;99.90;;;;;;5029994;28;20280;-68
2021/01/07 10:07:35;;;;;;;;;;;7.90;99.90;;;;;;5028227;28;19921;-68
2021/01/07 10:10:39;;;;;;;;;;;7.60;99.90;;;;;;5022119;28;19936;-68
2021/01/07 10:13:43;;;;;;;;;;;7.30;99.90;;;;;;5033905;28;19927;-67
2021/01/07 10:16:51;;;;;;;;;;;7.90;99.90;;;;;;5030488;28;19932;-68
2021/01/07 10:19:55;;;;;;;;;;;7.20;99.90;;;;;;5037511;28;19924;-68
2021/01/07 10:23:00;;;;;;;;;;;6.20;99.90;;;;;;5035714;28;19920;-68
2021/01/07 10:26:04;;;;;;;;;;;5.80;99.90;;;;;;5044065;28;19920;-68
2021/01/07 10:29:09;;;;;;;;;;;6.30;99.90;;;;;;5039324;28;20575;-68
2021/01/07 10:32:14;;;;;;;;;;;6.00;99.90;;;;;;5043155;28;19960;-68
2021/01/07 10:35:18;;;;;;;;;;;6.50;99.90;;;;;;5032917;28;20287;-66
2021/01/07 10:38:23;;;;;;;;;;;6.40;99.90;;;;;;5032209;28;19920;-66
2021/01/07 10:41:30;;;;;;;;;;;6.30;99.90;;;;;;5032050;28;19920;-67
2021/01/07 10:44:34;;;;;;;;;;;6.50;99.90;;;;;;5030203;28;19924;-67
2021/01/07 10:47:39;;;;;;;;;;;6.90;99.90;;;;;;5032317;28;19936;-65
2021/01/07 10:50:43;;;;;;;;;;;7.40;99.90;;;;;;5033190;28;19940;-66
2021/01/07 10:54:07;;;;;;;;;;;7.90;99.90;;;;;;5030178;28;20395;-66
2021/01/07 10:57:14;;;;;;;;;;;7.90;99.90;;;;;;5030490;28;19947;-66
2021/01/07 11:00:38;;;;;;;;;;;8.30;99.90;;;;;;5037423;28;19924;-68
2021/01/07 11:04:06;;;;;;;;;;;9.00;99.90;;;;;;5037291;28;19921;-66
2021/01/07 11:07:17;;;;;;;;;;;10.30;99.90;;;;;;5033873;28;19928;-68
2021/01/07 11:10:21;;;;;;;;;;;10.80;99.90;;;;;;5021238;28;20508;-66
2021/01/07 11:13:32;;;;;;;;;;;10.60;99.90;;;;;;5036779;28;19924;-66
2021/01/07 11:16:50;;;;;;;;;;;10.80;99.90;;;;;;5033672;28;19920;-67
2021/01/07 11:19:54;;;;;;;;;;;12.40;99.90;;;;;;5034248;28;20323;-66
2021/01/07 11:22:58;;;;;;;;;;;13.30;99.90;;;;;;5033752;28;19920;-66
2021/01/07 11:26:02;;;;;;;;;;;13.30;99.90;;;;;;5033477;28;19920;-66
2021/01/07 11:29:06;;;;;;;;;;;13.20;99.90;;;;;;5032860;28;19956;-67
2021/01/07 11:32:11;;;;;;;;;;;11.50;99.90;;;;;;5040418;28;19924;-68
2021/01/07 11:35:15;;;;;;;;;;;10.60;99.90;;;;;;5023250;28;20295;-67
2021/01/07 11:38:21;;;;;;;;;;;11.00;99.90;;;;;;5032703;28;19921;-68
2021/01/07 11:41:25;;;;;;;;;;;10.00;99.90;;;;;;5035478;28;19985;-67
2021/01/07 11:44:39;;;;;;;;;;;10.60;99.90;;;;;;5031545;28;19932;-66
2021/01/07 11:47:51;;;;;;;;;;;10.40;99.90;;;;;;5041378;28;20102;-64
2021/01/07 11:51:04;;;;;;;;;;;8.50;99.90;;;;;;5015971;28;20406;-68
2021/01/07 11:54:09;;;;;;;;;;;8.20;99.90;;;;;;5032329;28;20423;-67
2021/01/07 11:57:14;;;;;;;;;;;7.70;99.90;;;;;;5033302;28;19928;-66
2021/01/07 12:00:19;;;;;;;;;;;7.40;99.90;;;;;;5030369;28;19924;-66
2021/01/07 12:03:28;;;;;;;;;;;7.00;99.90;;;;;;5033677;28;19924;-66
2021/01/07 12:06:36;;;;;;;;;;;7.40;99.90;;;;;;5037417;28;20398;-66
2021/01/07 12:09:59;;;;;;;;;;;7.80;99.90;;;;;;5035194;28;19931;-68
2021/01/07 12:13:19;;;;;;;;;;;7.80;99.90;;;;;;5032805;28;19960;-66
2021/01/07 12:16:25;;;;;;;;;;;7.80;99.90;;;;;;5035641;28;19924;-67
2021/01/07 12:19:32;;;;;;;;;;;8.00;99.90;;;;;;5034098;28;19928;-67
2021/01/07 12:22:36;;;;;;;;;;;7.80;99.90;;;;;;5037619;28;19920;-64
2021/01/07 12:25:42;;;;;;;;;;;7.70;99.90;;;;;;5035397;28;19924;-67
2021/01/07 12:28:50;;;;;;;;;;;8.00;99.90;;;;;;5045183;28;19920;-66
2021/01/07 12:31:56;;;;;;;;;;;8.50;99.90;;;;;;5035741;28;19924;-66
2021/01/07 12:35:18;;;;;;;;;;;8.40;99.90;;;;;;5033883;28;19920;-66
2021/01/07 12:38:35;;;;;;;;;;;8.60;99.90;;;;;;5032772;28;19936;-67
2021/01/07 12:41:50;;;;;;;;;;;9.30;99.90;;;;;;5037319;28;19940;-67
2021/01/07 12:44:56;;;;;;;;;;;9.80;99.90;;;;;;5031361;28;20394;-66
2021/01/07 12:48:01;;;;;;;;;;;10.00;99.90;;;;;;5033543;28;20299;-67
2021/01/07 12:51:05;;;;;;;;;;;9.40;99.90;;;;;;5036661;28;20167;-66
2021/01/07 12:54:10;;;;;;;;;;;8.90;99.90;;;;;;5034778;28;19936;-66
2021/01/07 12:57:18;;;;;;;;;;;8.60;99.90;;;;;;5034481;28;19924;-65
2021/01/07 13:00:23;;;;;;;;;;;8.80;99.90;;;;;;5030714;28;19920;-67
2021/01/07 13:03:30;;;;;;;;;;;8.80;99.90;;;;;;5020326;28;19920;-67
2021/01/07 13:06:38;;;;;;;;;;;9.00;99.90;;;;;;5032971;28;20150;-67
2021/01/07 13:09:43;;;;;;;;;;;9.00;99.90;;;;;;5032073;28;20410;-66
2021/01/07 13:12:48;;;;;;;;;;;9.00;99.90;;;;;;5036459;28;19924;-67
2021/01/07 13:15:52;;;;;;;;;;;8.50;99.90;;;;;;5030834;28;19924;-66
2021/01/07 13:18:56;;;;;;;;;;;8.40;99.90;;;;;;5037782;28;20290;-67
2021/01/07 13:22:02;;;;;;;;;;;8.00;99.90;;;;;;5042687;28;20712;-64
2021/01/07 13:25:09;;;;;;;;;;;8.00;99.90;;;;;;5045539;28;20386;-66
2021/01/07 13:28:14;;;;;;;;;;;7.90;99.90;;;;;;5049915;28;20272;-67
2021/01/07 13:31:18;;;;;;;;;;;7.80;99.90;;;;;;5036261;28;19919;-67
2021/01/07 13:34:22;;;;;;;;;;;7.60;99.90;;;;;;5049837;28;19923;-67
2021/01/07 13:37:26;;;;;;;;;;;7.60;99.90;;;;;;5049885;28;20497;-65
2021/01/07 13:40:31;;;;;;;;;;;7.50;99.90;;;;;;5044166;28;19921;-63
2021/01/07 13:43:37;;;;;;;;;;;7.40;99.90;;;;;;5024894;28;19920;-67
2021/01/07 13:46:42;;;;;;;;;;;6.90;99.90;;;;;;5041077;28;20284;-66
2021/01/07 13:49:49;;;;;;;;;;;6.90;99.90;;;;;;5038629;28;19920;-66
2021/01/07 13:52:59;;;;;;;;;;;6.80;99.90;;;;;;5048676;28;19928;-65
2021/01/07 13:56:03;;;;;;;;;;;6.80;99.90;;;;;;5048315;28;19936;-67
2021/01/07 13:59:09;;;;;;;;;;;6.90;99.90;;;;;;5041109;28;20417;-67
2021/01/07 14:02:14;;;;;;;;;;;7.00;99.90;;;;;;5048564;28;20414;-67
2021/01/07 14:05:20;;;;;;;;;;;7.20;99.90;;;;;;5049920;28;20303;-67
2021/01/07 14:08:35;;;;;;;;;;;7.40;99.90;;;;;;5049417;28;19932;-64
2021/01/07 14:11:40;;;;;;;;;;;7.40;99.90;;;;;;5043591;28;19924;-65
2021/01/07 14:14:44;;;;;;;;;;;7.40;99.90;;;;;;5049463;28;20295;-66
2021/01/07 14:21:12;;;;;;;;;;;7.20;99.90;;;;;;5040523;28;19948;-65
2021/01/07 14:24:17;;;;;;;;;;;7.10;99.90;;;;;;5037622;28;19926;-66
2021/01/07 14:27:29;;;;;;;;;;;7.10;99.90;;;;;;5047229;28;20239;-66
2021/01/07 14:30:35;;;;;;;;;;;7.10;99.90;;;;;;5049129;28;19927;-65
2021/01/07 14:33:40;;;;;;;;;;;7.10;99.90;;;;;;5042968;28;20402;-66
2021/01/07 14:36:43;;;;;;;;;;;7.10;99.90;;;;;;5052670;28;19947;-65
2021/01/07 14:39:48;;;;;;;;;;;7.10;99.90;;;;;;5047098;28;19924;-64
2021/01/07 14:42:54;;;;;;;;;;;7.20;99.90;;;;;;5052412;28;19928;-66
2021/01/07 14:45:59;;;;;;;;;;;7.10;99.90;;;;;;5052972;28;19923;-67
2021/01/07 14:49:04;;;;;;;;;;;7.10;99.90;;;;;;5046473;28;19928;-65
2021/01/07 14:52:10;;;;;;;;;;;7.10;99.90;;;;;;5047609;28;20413;-65
2021/01/07 14:55:16;;;;;;;;;;;7.20;99.90;;;;;;5041237;28;19924;-67
2021/01/07 14:58:36;;;;;;;;;;;7.10;99.90;;;;;;5053039;28;20371;-66
2021/01/07 15:01:48;;;;;;;;;;;7.10;99.90;;;;;;5052614;28;19920;-67
2021/01/07 15:05:17;;;;;;;;;;;7.00;99.90;;;;;;5052778;28;19923;-67
2021/01/07 15:08:28;;;;;;;;;;;6.80;99.90;;;;;;5053002;28;19936;-62
2021/01/07 15:11:36;;;;;;;;;;;6.70;99.90;;;;;;5052106;28;19924;-67
2021/01/07 15:15:01;;;;;;;;;;;6.60;99.90;;;;;;5053275;28;20402;-66
2021/01/07 15:18:07;;;;;;;;;;;6.40;99.90;;;;;;5046640;28;19924;-66
2021/01/07 15:21:22;;;;;;;;;;;6.30;99.90;;;;;;5043955;28;19919;-65
2021/01/07 15:24:46;;;;;;;;;;;6.10;99.90;;;;;;5052524;28;19920;-67
2021/01/07 15:27:52;;;;;;;;;;;6.00;99.90;;;;;;5055582;28;19939;-65
2021/01/07 15:31:06;;;;;;;;;;;5.80;99.90;;;;;;5051700;28;19927;-67
2021/01/07 15:34:26;;;;;;;;;;;5.70;99.90;;;;;;5052094;28;19944;-64
2021/01/07 15:37:48;;;;;;;;;;;5.60;99.90;;;;;;5052160;28;19927;-66
2021/01/07 15:41:11;;;;;;;;;;;5.50;99.90;;;;;;5051804;28;19920;-64
2021/01/07 15:44:24;;;;;;;;;;;5.40;99.90;;;;;;5046457;28;19920;-63
2021/01/07 15:47:28;;;;;;;;;;;5.30;99.90;;;;;;5052154;28;19932;-67
2021/01/07 15:50:35;;;;;;;;;;;5.30;99.90;;;;;;5051932;28;19920;-66
2021/01/07 15:53:45;;;;;;;;;;;5.20;99.90;;;;;;5039809;28;19932;-66
2021/01/07 15:57:08;;;;;;;;;;;5.20;99.90;;;;;;5038639;28;19928;-66
2021/01/07 16:00:13;;;;;;;;;;;5.10;99.90;;;;;;5038875;28;19936;-65
2021/01/07 16:03:32;;;;;;;;;;;5.10;99.90;;;;;;5051897;28;19939;-66
2021/01/07 16:06:40;;;;;;;;;;;5.10;99.90;;;;;;5052197;28;20389;-66
2021/01/07 16:09:45;;;;;;;;;;;5.00;99.90;;;;;;5052271;28;19952;-66
2021/01/07 16:12:48;;;;;;;;;;;5.00;99.90;;;;;;5051403;28;19924;-65
2021/01/07 16:15:53;;;;;;;;;;;4.90;99.90;;;;;;5041883;28;20232;-63
2021/01/07 16:19:02;;;;;;;;;;;4.90;99.90;;;;;;5038477;28;19924;-67
2021/01/07 16:22:19;;;;;;;;;;;4.90;99.90;;;;;;5051160;28;19920;-67
2021/01/07 16:25:42;;;;;;;;;;;4.90;99.90;;;;;;5051534;28;20101;-65
2021/01/07 16:28:46;;;;;;;;;;;4.90;99.90;;;;;;5051128;28;19916;-67
2021/01/07 16:31:50;;;;;;;;;;;4.90;99.90;;;;;;5050393;28;19920;-66
2021/01/07 16:34:54;;;;;;;;;;;5.00;99.90;;;;;;5042202;28;19927;-66
2021/01/07 16:37:58;;;;;;;;;;;5.00;99.90;;;;;;5045593;28;19936;-66
2021/01/07 16:41:02;;;;;;;;;;;5.00;99.90;;;;;;5050109;28;19923;-67
2021/01/07 16:44:07;;;;;;;;;;;5.00;99.90;;;;;;5050462;28;20390;-67
2021/01/07 16:47:11;;;;;;;;;;;5.00;99.90;;;;;;5051194;28;19919;-65
2021/01/07 16:50:15;;;;;;;;;;;5.00;99.90;;;;;;5050796;28;19920;-63
2021/01/07 16:53:21;;;;;;;;;;;5.00;99.90;;;;;;5049437;28;19923;-66
2021/01/07 16:56:25;;;;;;;;;;;5.00;99.90;;;;;;5039376;28;19939;-66
2021/01/07 16:59:29;;;;;;;;;;;4.90;99.90;;;;;;5035379;28;19919;-65
2021/01/07 17:02:36;;;;;;;;;;;4.90;99.90;;;;;;5035708;28;19920;-67
2021/01/07 17:05:40;;;;;;;;;;;4.80;99.90;;;;;;5037090;28;19932;-67
2021/01/07 17:08:44;;;;;;;;;;;4.90;99.90;;;;;;5043722;28;19937;-66
2021/01/07 17:11:48;;;;;;;;;;;4.80;99.90;;;;;;5038022;28;19924;-65
2021/01/07 17:14:52;;;;;;;;;;;4.70;99.90;;;;;;5042707;28;19940;-63
2021/01/07 17:17:57;;;;;;;;;;;4.70;99.90;;;;;;5041799;28;20295;-65
2021/01/07 17:21:01;;;;;;;;;;;4.80;99.90;;;;;;5038115;28;19924;-67
2021/01/07 17:24:05;;;;;;;;;;;4.70;99.90;;;;;;5045185;28;19920;-66
2021/01/07 17:27:10;;;;;;;;;;;4.60;99.90;;;;;;5041370;28;20314;-65
2021/01/07 17:30:15;;;;;;;;;;;4.50;99.90;;;;;;5042913;28;19940;-67
2021/01/07 17:33:19;;;;;;;;;;;4.50;99.90;;;;;;5026227;28;19932;-66
2021/01/07 17:36:25;;;;;;;;;;;4.40;99.90;;;;;;5033763;28;19928;-66
2021/01/07 17:39:29;;;;;;;;;;;4.30;99.90;;;;;;5035791;28;19936;-65
2021/01/07 17:42:33;;;;;;;;;;;4.20;99.90;;;;;;5038391;28;19927;-64
2021/01/07 17:45:37;;;;;;;;;;;4.20;99.90;;;;;;5037670;28;19924;-64
2021/01/07 17:48:41;;;;;;;;;;;4.20;99.90;;;;;;5034001;28;19920;-65
2021/01/07 17:51:45;;;;;;;;;;;4.20;99.90;;;;;;5037323;28;19924;-65
2021/01/07 17:54:49;;;;;;;;;;;4.20;99.90;;;;;;5040170;28;19932;-65
2021/01/07 17:57:53;;;;;;;;;;;4.30;99.90;;;;;;5042867;28;19920;-64
2021/01/07 18:00:57;;;;;;;;;;;4.30;99.90;;;;;;5037129;28;19920;-65
2021/01/07 18:04:01;;;;;;;;;;;4.30;99.90;;;;;;5044579;28;19923;-65
2021/01/07 18:07:08;;;;;;;;;;;4.30;99.90;;;;;;5035384;28;20406;-65
2021/01/07 18:10:12;;;;;;;;;;;4.20;99.90;;;;;;5036004;28;19924;-65
2021/01/07 18:13:17;;;;;;;;;;;4.30;99.90;;;;;;5045636;28;19927;-64
2021/01/07 18:16:21;;;;;;;;;;;4.30;99.90;;;;;;5045674;28;20394;-65
2021/01/07 18:19:25;;;;;;;;;;;4.30;99.90;;;;;;5037735;28;20203;-65
2021/01/07 18:22:29;;;;;;;;;;;4.30;99.90;;;;;;5041676;28;19921;-64